Steptoe Valley North, Nevada Weather observations

Data are for 10 minute period ending at time listed.
 Day   Time   Solar   Ave.   Ave.  Ave.  Vector  Max.   Baro.   Total    
  of    of     Rad.   Air    Rel.  Wind   Wind   Wind  Press.  Precip.   
Year   Day            Temp.  Hum.  Speed  Dir.   Gust                    
2016   (PST)  Kw/m2    F      %     mph   deg.    mph    mb.     in.     
-------------------------------------------------------------------------
 211    0:00   0.00   62.1    54    4.9   346     6.6   823.9    0.00 
 211    0:10   0.00   61.2    54    3.7    25     5.3   823.9    0.00 
 211    0:20   0.00   61.1    52    4.1    39     5.8   823.9    0.00 
 211    0:30   0.00   61.8    44    4.3    51     5.8   823.9    0.00 
 211    0:40   0.00   62.7    43    5.6    45     7.2   823.9    0.00 
 211    0:50   0.00   61.8    40    4.6    59     6.2   824.0    0.00 
 211    1:00   0.00   62.2    40    4.6    43     5.8   823.9    0.00 
 211    1:10   0.00   60.7    49    3.9    26     6.1   823.9    0.00 
 211    1:20   0.00   57.0    59    4.4   338     5.6   823.9    0.00 
 211    1:30   0.00   55.1    64    3.3   358     5.0   823.8    0.00 
 211    1:40   0.00   55.1    62    2.6    63     4.9   823.7    0.00 
 211    1:50   0.00   56.6    53    1.4    88     3.4   823.8    0.00 
 211    2:00   0.00   59.4    42    2.9   326     4.0   823.8    0.00 
 211    2:10   0.00   58.6    50    4.2   355     5.5   823.7    0.00 
 211    2:20   0.00   55.5    64    5.1    16     6.1   823.6    0.00 
 211    2:30   0.00   55.4    59    4.3    25     6.1   823.6    0.00 
 211    2:40   0.00   55.3    60    1.9    45     4.6   823.6    0.00 
 211    2:50   0.00   53.5    64    2.3   163     3.7   823.6    0.00 
 211    3:00   0.00   52.7    66    1.9   285     3.2   823.6    0.00 
 211    3:10   0.00   52.4    68    1.7   294     4.2   823.5    0.00 
 211    3:20   0.00   50.4    72    4.0   179     6.1   823.6    0.00 
 211    3:30   0.00   51.2    59    2.7   238     5.0   823.7    0.00 
 211    3:40   0.00   51.6    58    1.0   186     2.6   823.7    0.00 
 211    3:50   0.00   51.2    57    1.4   172     2.5   823.6    0.00 
 211    4:00   0.00   51.7    57    2.1   153     3.2   823.5    0.00 
 211    4:10   0.00   52.7    48    1.7   141     2.6   823.5    0.00 
 211    4:20   0.00   51.9    62    1.8    82     4.0   823.4    0.00 
 211    4:30   0.00   50.1    65    2.7    72     3.6   823.5    0.00 
 211    4:40   0.01   50.2    64    0.9    85     1.7   823.5    0.00 
 211    4:50   0.01   49.7    71    1.1    49     2.9   823.6    0.00 
 211    5:00   0.04   50.1    73    2.3    35     3.4   823.7    0.00 
 211    5:10   0.06   50.7    72    3.1    11     4.0   823.7    0.00 
 211    5:20   0.09   52.1    72    1.8    14     3.4   823.8    0.00 
 211    5:30   0.12   54.5    68    0.3    18     1.3   823.9    0.00 
 211    5:40   0.16   56.9    58    1.4    40     2.3   823.9    0.00 
 211    5:50   0.19   60.1    55    0.1    42     0.7   823.9    0.00 
 211    6:00   0.23   61.5    56    0.1    62     0.6   824.0    0.00 
 211    6:10   0.28   62.9    55    0.9    91     1.8   824.1    0.00 
 211    6:20   0.33   66.5    45    0.0    84     0.6   824.2    0.00 
 211    6:30   0.34   68.0    37    0.4    84     1.6   824.2    0.00 
 211    6:40   0.23   67.2    46    0.4    84     1.3   824.3    0.00 
 211    6:50   0.39   66.5    53    1.9   329     2.9   824.5    0.00 
 211    7:00   0.34   69.6    46    1.9   209     3.1   824.6    0.00 
 211    7:10   0.41   70.7    46    2.7   223     4.1   824.7    0.00 
 211    7:20   0.18   69.1    50    3.3   219     3.9   824.7    0.00 
 211    7:30   0.26   67.5    49    3.9   237     5.0   824.7    0.00 
 211    7:40   0.44   68.2    46    3.9   244     6.7   824.8    0.00 
 211    7:50   0.30   69.8    42    2.2   251     3.9   824.9    0.00 
 211    8:00   0.62   72.2    40    1.3   222     2.6   824.9    0.00 
 211    8:10   0.66   77.6    30    1.3   185     2.5   824.9    0.00 
 211    8:20   0.66   79.2    31    1.2   150     2.9   824.8    0.00 
 211    8:30   0.67   79.6    32    0.3   133     1.7   824.6    0.00 
 211    8:40   0.70   81.0    32    0.7   139     2.3   824.5    0.00 
 211    8:50   0.69   83.5    23    0.7    94     2.0   824.4    0.00 
 211    9:00   0.70   82.0    24    1.8    61     4.0   824.3    0.00 
 211    9:10   0.75   82.0    24    1.7    55     3.8   824.2    0.00 
 211    9:20   0.83   83.0    20    2.0    30     3.9   824.1    0.00 
 211    9:30   1.01   84.0    20    2.4    44     4.6   824.0    0.00 
 211    9:40   0.99   85.8    20    1.7    24     3.9   823.9    0.00 
 211    9:50   0.94   85.9    20    2.1    24     4.2   823.7    0.00 
 211   10:00   0.90   87.6    21    1.3   196     4.4   823.7    0.00 
 211   10:10   0.89   88.5    21    1.8   300     6.7   823.6    0.00 
 211   10:20   0.90   88.1    26    2.8   205     4.4   823.7    0.00 
 211   10:30   0.91   90.4    26    2.5   184     4.1   823.5    0.00 
 211   10:40   0.92   90.4    25    2.7   182     5.2   823.4    0.00 
 211   10:50   0.93   90.0    25    2.4   155     3.9   823.3    0.00 
 211   11:00   0.94   89.1    22    3.0   150     5.9   823.2    0.00 
 211   11:10   0.95   90.5    19    1.5    54     4.1   823.1    0.00 
 211   11:20   0.96   90.2    19    3.0     7     9.1   822.9    0.00 
 211   11:30   0.97   90.4    19    2.9   352     6.7   822.9    0.00 
 211   11:40   1.00   90.0    19    4.3     0     7.1   822.7    0.00 
 211   11:50   1.03   90.5    20    4.1     4     7.1   822.7    0.00 
 211   12:00   1.09   91.2    17    2.5     5     5.6   822.6    0.00 
 211   12:10   0.89   92.2    18    2.2   328     6.1   822.6    0.00 
 211   12:20   0.83   91.5    20    3.3   298     8.2   822.5    0.00 
 211   12:30   0.41   86.4    28    8.5   312    12.9   822.4    0.00 
 211   12:40   0.24   83.0    26    8.0   316    13.2   822.4    0.00 
 211   12:50   0.14   84.8    26    5.7   330    11.2   822.3    0.00 
 211   13:00   0.08   82.6    24    8.7   282    18.0   822.6    0.00 
 211   13:10   0.06   81.4    22   14.3   253    25.6   822.7    0.00 
 211   13:20   0.06   79.4    25   16.8   225    27.5   822.5    0.00 
 211   13:30   0.06   79.1    26   13.0   212    21.6   822.5    0.00 
 211   13:40   0.06   78.1    29    9.7   192    18.9   822.5    0.00 
 211   13:50   0.08   76.8    33    7.6   168    12.0   822.4    0.00 
 211   14:00   0.12   80.9    22    9.9   137    21.6   822.0    0.00 
 211   14:10   0.20   85.3    16    8.9    79    19.8   821.9    0.00 
 211   14:20   0.31   86.0    16    6.2    76    11.5   821.7    0.00 
 211   14:30   0.41   86.0    21    6.0   100    12.0   821.5    0.00 
 211   14:40   0.71   82.6    28   13.4   133    25.0   821.3    0.00 
 211   14:50   0.87   83.1    28   17.0   141    24.3   821.2    0.00 
 211   15:00   0.81   83.7    27   15.5   140    24.4   821.1    0.00 
 211   15:10   0.71   83.8    27   14.8   143    23.3   820.9    0.00 
 211   15:20   0.28   82.4    26   14.8   142    21.9   821.0    0.00 
 211   15:30   0.24   80.9    27   11.1   139    17.6   821.1    0.00 
 211   15:40   0.25   81.9    28    8.7   151    14.9   821.1    0.00 
 211   15:50   0.17   80.6    31    6.6   187    10.4   821.1    0.00 
 211   16:00   0.28   80.0    32    7.6   195    10.7   821.2    0.00 
 211   16:10   0.24   81.0    32    8.8   184    13.1   821.3    0.00 
 211   16:20   0.16   79.8    30   10.2   196    17.1   821.3    0.00 
 211   16:30   0.21   80.6    31    7.8   194    12.0   821.2    0.00 
 211   16:40   0.23   80.3    28   10.4   205    15.9   821.2    0.00 
 211   16:50   0.26   80.7    28    9.3   204    14.4   821.1    0.00 

Return to Steptoe Valley North graphs page.


Western Regional Climate Center,wrcc@dri.edu